createdAt,value
2023-03-17T00:01:51.106Z,100830.22
2023-03-17T00:04:22.167Z,100824.56
2023-03-17T00:06:48.745Z,100813.34
2023-03-17T00:09:17.461Z,100836.94
2023-03-17T00:11:45.562Z,100830.91
2023-03-17T00:14:12.243Z,100832.03
2023-03-17T00:16:42.465Z,100840.53
2023-03-17T00:19:17.092Z,100841.44
2023-03-17T00:21:45.832Z,100830.22
2023-03-17T00:24:14.716Z,100826.69
2023-03-17T00:26:42.510Z,100821.38
2023-03-17T00:29:09.942Z,100813.34
2023-03-17T00:31:38.245Z,100815.16
2023-03-17T00:34:05.779Z,100817.22
2023-03-17T00:36:34.182Z,100816.38
2023-03-17T00:39:03.505Z,100810.72
2023-03-17T00:41:30.200Z,100807.88
2023-03-17T00:43:57.242Z,100810.38
2023-03-17T00:46:31.225Z,100805.94
2023-03-17T00:48:57.831Z,100805.06
2023-03-17T00:51:24.396Z,100805.06
2023-03-17T00:53:50.859Z,100794.63
2023-03-17T00:56:20.704Z,100801.44
2023-03-17T00:58:48.664Z,100795.88
2023-03-17T01:01:15.984Z,100790.56
2023-03-17T01:03:42.579Z,100788.50
2023-03-17T01:06:12.686Z,100784.19
2023-03-17T01:08:41.125Z,100789.31
2023-03-17T01:11:15.109Z,100783.28
2023-03-17T01:13:41.607Z,100793.16
2023-03-17T01:16:12.340Z,100784.31
2023-03-17T01:18:39.645Z,100790.66
2023-03-17T01:21:07.912Z,100784.19
2023-03-17T01:23:34.472Z,100786.25
2023-03-17T01:26:01.593Z,100780.91
2023-03-17T01:28:28.833Z,100763.44
2023-03-17T01:30:55.516Z,100773.44
2023-03-17T01:33:22.416Z,100783.41
2023-03-17T01:35:50.851Z,100791.44
2023-03-17T01:38:17.671Z,100777.75
2023-03-17T01:40:51.059Z,100782.63
2023-03-17T01:43:28.114Z,100782.63
2023-03-17T01:46:22.296Z,100789.53
2023-03-17T01:49:10.291Z,100791.56
2023-03-17T01:51:57.480Z,100787.13
2023-03-17T01:54:48.116Z,100777.16
2023-03-17T01:57:23.306Z,100781.91
2023-03-17T01:59:53.465Z,100766.72
2023-03-17T02:02:28.774Z,100778.06
2023-03-17T02:04:55.227Z,100772.41
2023-03-17T02:07:23.902Z,100776.25
2023-03-17T02:09:52.465Z,100756.22
2023-03-17T02:12:22.405Z,100765.81
2023-03-17T02:14:49.990Z,100763.44
2023-03-17T02:17:16.451Z,100770.25
2023-03-17T02:19:43.026Z,100754.16
2023-03-17T02:22:10.160Z,100739.34
2023-03-17T02:24:51.145Z,100752.69
2023-03-17T02:27:41.850Z,100751.00
2023-03-17T02:30:10.464Z,100758.59
2023-03-17T02:32:37.508Z,100754.94
2023-03-17T02:35:05.080Z,100740.19
2023-03-17T02:37:31.573Z,100746.91
2023-03-17T02:40:01.039Z,100740.19
2023-03-17T02:42:28.909Z,100754.72
2023-03-17T02:44:58.651Z,100753.81
2023-03-17T02:47:25.394Z,100738.19
2023-03-17T02:49:52.568Z,100743.72
2023-03-17T02:52:19.542Z,100741.69
2023-03-17T02:54:46.036Z,100740.19
2023-03-17T02:57:13.830Z,100740.19
2023-03-17T02:59:40.620Z,100735.34
2023-03-17T03:02:07.434Z,100738.19
2023-03-17T03:04:33.990Z,100728.88
2023-03-17T03:07:00.500Z,100713.34
2023-03-17T03:09:27.248Z,100728.50
2023-03-17T03:11:53.804Z,100727.50
2023-03-17T03:14:20.253Z,100737.91
2023-03-17T03:16:46.894Z,100724.88
2023-03-17T03:19:13.526Z,100758.09
2023-03-17T03:21:40.164Z,100758.88
2023-03-17T03:24:07.157Z,100749.78
2023-03-17T03:26:33.797Z,100762.16
2023-03-17T03:29:00.880Z,100766.59
2023-03-17T03:31:27.882Z,100744.50
2023-03-17T03:33:54.460Z,100731.56
2023-03-17T03:36:22.325Z,100737.13
2023-03-17T03:38:49.575Z,100739.72
2023-03-17T03:41:16.018Z,100740.75
2023-03-17T03:43:42.492Z,100730.66
2023-03-17T03:46:09.162Z,100737.13
2023-03-17T03:48:35.652Z,100747.66
2023-03-17T03:51:03.385Z,100739.50
2023-03-17T03:53:30.299Z,100730.88
2023-03-17T03:55:56.890Z,100713.41
2023-03-17T03:58:23.580Z,100726.03
2023-03-17T04:00:50.359Z,100731.13
2023-03-17T04:03:16.994Z,100724.31
2023-03-17T04:05:44.009Z,100717.06
2023-03-17T04:08:11.377Z,100719.00
2023-03-17T04:10:37.878Z,100699.84
2023-03-17T04:13:04.349Z,100707.31
2023-03-17T04:15:31.053Z,100701.66
2023-03-17T04:17:57.506Z,100692.94
2023-03-17T04:20:23.985Z,100682.41
2023-03-17T04:22:50.499Z,100694.06
2023-03-17T04:25:17.003Z,100675.84
2023-03-17T04:27:43.472Z,100660.53
2023-03-17T04:30:14.404Z,100650.03
2023-03-17T04:32:41.724Z,100644.44
2023-03-17T04:35:12.147Z,100648.09
2023-03-17T04:37:38.841Z,100646.81
2023-03-17T04:40:10.008Z,100653.38
2023-03-17T04:42:37.543Z,100661.56
2023-03-17T04:45:06.393Z,100683.31
2023-03-17T04:47:33.586Z,100678.53
2023-03-17T04:50:00.035Z,100680.13
2023-03-17T04:52:27.126Z,100684.19
2023-03-17T04:54:53.590Z,100673.44
2023-03-17T04:57:20.633Z,100680.69
2023-03-17T04:59:47.118Z,100692.81
2023-03-17T05:02:13.925Z,100678.06
2023-03-17T05:04:40.424Z,100693.25
2023-03-17T05:07:07.280Z,100681.16
2023-03-17T05:09:33.787Z,100679.66
2023-03-17T05:12:00.349Z,100665.97
2023-03-17T05:14:26.820Z,100672.06
2023-03-17T05:16:53.285Z,100678.06
2023-03-17T05:19:19.840Z,100665.97
2023-03-17T05:21:47.784Z,100675.25
2023-03-17T05:24:14.314Z,100671.63
2023-03-17T05:26:40.952Z,100659.97
2023-03-17T05:29:08.930Z,100664.47
2023-03-17T05:31:36.421Z,100657.78
2023-03-17T05:34:04.172Z,100672.97
2023-03-17T05:36:30.836Z,100665.03
2023-03-17T05:38:57.775Z,100675.03
2023-03-17T05:41:24.381Z,100657.34
2023-03-17T05:43:50.977Z,100664.72
2023-03-17T05:46:20.242Z,100645.44
2023-03-17T05:48:47.055Z,100646.47
2023-03-17T05:51:13.472Z,100649.28
2023-03-17T05:53:40.223Z,100637.31
2023-03-17T05:56:07.380Z,100642.84
2023-03-17T05:58:34.379Z,100636.94
2023-03-17T06:01:01.063Z,100642.72
2023-03-17T06:03:27.632Z,100639.78
2023-03-17T06:05:54.552Z,100635.00
2023-03-17T06:08:21.286Z,100642.97
2023-03-17T06:10:48.063Z,100646.34
2023-03-17T06:13:14.820Z,100644.75
2023-03-17T06:15:42.378Z,100631.50
2023-03-17T06:18:08.958Z,100637.84
2023-03-17T06:20:36.586Z,100623.91
2023-03-17T06:23:05.601Z,100616.59
2023-03-17T06:25:34.614Z,100630.63
2023-03-17T06:28:02.827Z,100623.69
2023-03-17T06:30:30.706Z,100624.50
2023-03-17T06:32:57.243Z,100630.94
2023-03-17T06:35:24.913Z,100635.81
2023-03-17T06:37:51.667Z,100635.00
2023-03-17T06:40:18.328Z,100629.34
2023-03-17T06:42:44.888Z,100638.22
2023-03-17T06:45:12.303Z,100628.91
2023-03-17T06:47:39.866Z,100635.38
2023-03-17T06:50:09.710Z,100632.53
2023-03-17T06:52:37.098Z,100640.69
2023-03-17T06:55:04.872Z,100635.38
2023-03-17T06:57:31.920Z,100638.53
2023-03-17T06:59:58.912Z,100635.00
2023-03-17T07:02:25.506Z,100641.72
2023-03-17T07:04:52.259Z,100634.81
2023-03-17T07:07:20.894Z,100635.59
2023-03-17T07:09:47.857Z,100632.88
2023-03-17T07:12:14.746Z,100640.03
2023-03-17T07:14:41.785Z,100631.72
2023-03-17T07:17:12.822Z,100645.22
2023-03-17T07:19:40.617Z,100636.75
2023-03-17T07:22:08.062Z,100621.69
2023-03-17T07:24:34.557Z,100628.59
2023-03-17T07:27:01.316Z,100634.25
2023-03-17T07:29:29.242Z,100639.34
2023-03-17T07:31:56.006Z,100623.97
2023-03-17T07:34:23.168Z,100619.19
2023-03-17T07:36:49.692Z,100622.34
2023-03-17T07:39:17.346Z,100631.09
2023-03-17T07:41:44.205Z,100633.47
2023-03-17T07:44:11.363Z,100641.50
2023-03-17T07:46:38.820Z,100645.91
2023-03-17T07:49:06.070Z,100636.97
2023-03-17T07:51:32.579Z,100635.03
2023-03-17T07:54:03.758Z,100634.06
2023-03-17T07:56:31.752Z,100630.41
2023-03-17T07:58:59.079Z,100629.84
2023-03-17T08:01:28.505Z,100617.28
2023-03-17T08:03:56.456Z,100616.69
2023-03-17T08:06:25.273Z,100611.03
2023-03-17T08:08:53.009Z,100613.09
2023-03-17T08:11:20.370Z,100615.78
2023-03-17T08:13:47.873Z,100603.56
2023-03-17T08:16:14.352Z,100594.59
2023-03-17T08:18:41.591Z,100606.66
2023-03-17T08:21:08.372Z,100597.78
2023-03-17T08:23:35.338Z,100602.44
2023-03-17T08:26:04.037Z,100607.19
2023-03-17T08:28:31.822Z,100599.06
2023-03-17T08:31:12.211Z,100595.78
2023-03-17T08:33:40.560Z,100600.53
2023-03-17T08:36:09.379Z,100591.44
2023-03-17T08:38:40.287Z,100591.31
2023-03-17T08:41:10.314Z,100584.06
2023-03-17T08:43:37.369Z,100577.03
2023-03-17T08:46:12.887Z,100582.91
2023-03-17T08:48:39.784Z,100584.84
2023-03-17T08:51:06.902Z,100587.66
2023-03-17T08:53:34.951Z,100591.47
2023-03-17T08:56:02.144Z,100605.53
2023-03-17T08:58:29.271Z,100605.41
2023-03-17T09:00:58.877Z,100586.84
2023-03-17T09:03:25.750Z,100602.00
2023-03-17T09:05:52.262Z,100605.50
2023-03-17T09:08:19.261Z,100597.31
2023-03-17T09:10:45.752Z,100603.66
2023-03-17T09:13:12.178Z,100602.09
2023-03-17T09:15:39.016Z,100601.81
2023-03-17T09:18:07.220Z,100602.50
2023-03-17T09:20:34.287Z,100591.00
2023-03-17T09:23:01.392Z,100590.88
2023-03-17T09:25:27.879Z,100594.06
2023-03-17T09:27:55.614Z,100593.16
2023-03-17T09:30:22.136Z,100582.25
2023-03-17T09:32:49.196Z,100578.38
2023-03-17T09:35:15.733Z,100579.16
2023-03-17T09:37:42.667Z,100589.44
2023-03-17T09:40:13.934Z,100583.75
2023-03-17T09:42:56.496Z,100586.34
2023-03-17T09:45:35.662Z,100589.81
2023-03-17T09:48:33.661Z,100570.25
2023-03-17T09:51:11.820Z,100591.13
2023-03-17T09:53:56.780Z,100587.84
2023-03-17T09:56:23.903Z,100585.19
2023-03-17T09:59:05.679Z,100574.47
2023-03-17T10:01:32.904Z,100557.44
2023-03-17T10:03:59.369Z,100563.19
2023-03-17T10:06:43.644Z,100555.03
2023-03-17T10:09:51.777Z,100553.19
2023-03-17T10:12:42.928Z,100558.22
2023-03-17T10:15:32.400Z,100547.19
2023-03-17T10:17:59.019Z,100541.38
2023-03-17T10:20:28.493Z,100550.38
2023-03-17T10:23:00.977Z,100539.84
2023-03-17T10:25:34.025Z,100524.22
2023-03-17T10:28:26.081Z,100535.28
2023-03-17T10:30:53.619Z,100547.63
2023-03-17T10:33:21.212Z,100536.91
2023-03-17T10:35:47.809Z,100535.00
2023-03-17T10:38:17.470Z,100539.59
2023-03-17T10:40:47.784Z,100529.03
2023-03-17T10:43:19.297Z,100523.03
2023-03-17T10:46:00.731Z,100526.81
2023-03-17T10:48:29.911Z,100530.63
2023-03-17T10:50:58.614Z,100523.06
2023-03-17T10:53:30.217Z,100520.81
2023-03-17T10:56:07.982Z,100523.53
2023-03-17T10:58:41.604Z,100524.81
2023-03-17T11:01:23.681Z,100517.38
2023-03-17T11:03:50.762Z,100528.44
2023-03-17T11:06:20.788Z,100513.88
2023-03-17T11:08:51.035Z,100529.69
2023-03-17T11:11:26.217Z,100529.38
2023-03-17T11:14:13.445Z,100528.41
2023-03-17T11:17:00.900Z,100520.50
2023-03-17T11:19:30.972Z,100525.88
2023-03-17T11:22:14.462Z,100510.06
2023-03-17T11:25:11.531Z,100509.72
2023-03-17T11:27:47.166Z,100516.19
2023-03-17T11:30:33.106Z,100513.16
2023-03-17T11:33:13.400Z,100505.56
2023-03-17T11:35:56.467Z,100500.03
2023-03-17T11:38:29.967Z,100494.44
2023-03-17T11:41:15.352Z,100494.78
2023-03-17T11:44:02.196Z,100492.53
2023-03-17T11:46:49.780Z,100497.09
2023-03-17T11:49:45.210Z,100505.78
2023-03-17T11:52:23.476Z,100494.03
2023-03-17T11:55:18.080Z,100484.81
2023-03-17T11:57:53.228Z,100487.03
2023-03-17T12:00:33.511Z,100475.25
2023-03-17T12:03:23.231Z,100473.50
2023-03-17T12:05:54.842Z,100465.69
2023-03-17T12:08:39.717Z,100466.28
2023-03-17T12:11:12.029Z,100459.41
2023-03-17T12:13:46.172Z,100459.84
2023-03-17T12:16:19.325Z,100472.53
2023-03-17T12:19:00.894Z,100462.00
2023-03-17T12:21:39.776Z,100454.38
2023-03-17T12:24:20.178Z,100462.97
2023-03-17T12:26:49.600Z,100458.00
2023-03-17T12:29:39.743Z,100465.88
2023-03-17T12:32:20.225Z,100463.13
2023-03-17T12:34:51.827Z,100460.19
2023-03-17T12:37:19.425Z,100450.16
2023-03-17T12:39:55.483Z,100445.03
2023-03-17T12:42:34.294Z,100440.91
2023-03-17T12:45:26.350Z,100432.47
2023-03-17T12:47:58.528Z,100425.56
2023-03-17T12:50:43.599Z,100430.59
2023-03-17T12:53:24.457Z,100420.44
2023-03-17T12:55:53.879Z,100433.03
2023-03-17T12:58:35.878Z,100438.56
2023-03-17T13:01:14.084Z,100438.13
2023-03-17T13:04:01.267Z,100430.66
2023-03-17T13:06:31.682Z,100440.09
2023-03-17T13:09:31.366Z,100443.53
2023-03-17T13:12:03.241Z,100433.75
2023-03-17T13:14:39.055Z,100431.22
2023-03-17T13:17:18.598Z,100436.72
2023-03-17T13:20:10.927Z,100438.09
2023-03-17T13:22:40.954Z,100431.66
2023-03-17T13:25:36.339Z,100424.97
2023-03-17T13:28:16.810Z,100433.31
2023-03-17T13:30:54.762Z,100434.31
2023-03-17T13:33:27.250Z,100441.78
2023-03-17T13:36:30.644Z,100437.63
2023-03-17T13:39:32.119Z,100433.75
2023-03-17T13:42:26.103Z,100436.94
2023-03-17T13:45:32.130Z,100434.91
2023-03-17T13:48:27.429Z,100425.34
2023-03-17T13:51:14.493Z,100428.50
2023-03-17T13:53:48.732Z,100430.06
2023-03-17T13:56:21.621Z,100440.78
2023-03-17T13:59:00.168Z,100433.06
2023-03-17T14:01:29.968Z,100437.28
2023-03-17T14:03:56.818Z,100429.78
2023-03-17T14:06:31.173Z,100430.09
2023-03-17T14:09:04.638Z,100433.25
2023-03-17T14:11:31.438Z,100431.75
2023-03-17T14:14:31.970Z,100413.22
2023-03-17T14:17:06.901Z,100430.25
2023-03-17T14:19:33.390Z,100425.03
2023-03-17T14:22:18.037Z,100416.53
2023-03-17T14:24:51.930Z,100426.97
2023-03-17T14:27:18.737Z,100422.00
2023-03-17T14:29:45.476Z,100428.09
2023-03-17T14:32:18.764Z,100421.38
2023-03-17T14:34:53.088Z,100410.19
2023-03-17T14:37:20.466Z,100409.47
2023-03-17T14:39:53.037Z,100410.81
2023-03-17T14:42:31.023Z,100410.81
2023-03-17T14:45:09.194Z,100413.72
2023-03-17T14:47:41.048Z,100416.38
2023-03-17T14:50:29.716Z,100420.53
2023-03-17T14:52:59.151Z,100418.25
2023-03-17T14:55:35.754Z,100418.00
2023-03-17T14:58:08.946Z,100414.66
2023-03-17T15:00:38.410Z,100421.72
2023-03-17T15:03:18.562Z,100429.81
2023-03-17T15:05:46.670Z,100426.72
2023-03-17T15:08:31.113Z,100431.13
2023-03-17T15:10:59.249Z,100435.53
2023-03-17T15:13:26.861Z,100427.75
2023-03-17T15:15:53.808Z,100427.56
2023-03-17T15:18:21.278Z,100423.69
2023-03-17T15:20:47.776Z,100414.28
2023-03-17T15:23:23.617Z,100416.91
2023-03-17T15:25:55.777Z,100414.03
2023-03-17T15:28:31.436Z,100421.13
2023-03-17T15:31:12.415Z,100419.34
2023-03-17T15:33:41.178Z,100407.59
2023-03-17T15:36:25.511Z,100421.97
2023-03-17T15:38:58.000Z,100407.88
2023-03-17T15:41:24.436Z,100414.94
2023-03-17T15:43:50.873Z,100411.31
2023-03-17T15:46:23.679Z,100411.84
2023-03-17T15:48:50.256Z,100413.94
2023-03-17T15:51:17.051Z,100409.00
2023-03-17T15:53:43.552Z,100407.69
2023-03-17T15:56:18.969Z,100397.53
2023-03-17T15:58:52.150Z,100408.75
2023-03-17T16:01:19.279Z,100411.63
2023-03-17T16:03:47.265Z,100412.13
2023-03-17T16:06:22.254Z,100403.81
2023-03-17T16:08:50.130Z,100400.44
2023-03-17T16:11:19.383Z,100386.34
2023-03-17T16:13:48.596Z,100386.63
2023-03-17T16:16:21.358Z,100379.59
2023-03-17T16:18:50.921Z,100353.28
2023-03-17T16:21:17.871Z,100351.97
2023-03-17T16:23:44.609Z,100349.13
2023-03-17T16:26:15.940Z,100335.88
2023-03-17T16:28:45.338Z,100326.22
2023-03-17T16:31:22.310Z,100343.38
2023-03-17T16:33:49.243Z,100359.03
2023-03-17T16:36:18.363Z,100369.47
2023-03-17T16:38:45.826Z,100367.09
2023-03-17T16:41:18.984Z,100354.56
2023-03-17T16:43:49.806Z,100373.59
2023-03-17T16:46:17.359Z,100374.38
2023-03-17T16:48:44.125Z,100376.47
2023-03-17T16:51:10.674Z,100374.13
2023-03-17T16:53:37.181Z,100378.06
2023-03-17T16:56:03.757Z,100392.06
2023-03-17T16:58:34.526Z,100396.53
2023-03-17T17:01:06.214Z,100412.94
2023-03-17T17:03:32.732Z,100413.44
2023-03-17T17:05:59.209Z,100409.00
2023-03-17T17:08:25.682Z,100412.88
2023-03-17T17:10:52.902Z,100430.31
2023-03-17T17:13:19.378Z,100427.97
2023-03-17T17:15:46.038Z,100421.97
2023-03-17T17:18:20.468Z,100419.59
2023-03-17T17:20:48.145Z,100409.47
2023-03-17T17:23:17.447Z,100415.47
2023-03-17T17:25:45.289Z,100412.81
2023-03-17T17:28:14.315Z,100421.13
2023-03-17T17:30:44.882Z,100415.91
2023-03-17T17:33:12.399Z,100414.13
2023-03-17T17:35:39.283Z,100413.84
2023-03-17T17:38:12.860Z,100407.31
2023-03-17T17:40:39.291Z,100403.91
2023-03-17T17:43:05.815Z,100411.19
2023-03-17T17:45:32.604Z,100410.41
2023-03-17T17:47:59.269Z,100408.56
2023-03-17T17:50:28.158Z,100411.94
2023-03-17T17:52:54.954Z,100404.34
2023-03-17T17:55:21.450Z,100406.41
2023-03-17T17:57:48.015Z,100412.41
2023-03-17T18:00:17.166Z,100419.97
2023-03-17T18:02:44.013Z,100418.91
2023-03-17T18:05:11.130Z,100419.41
2023-03-17T18:07:38.082Z,100416.53
2023-03-17T18:10:06.242Z,100429.28
2023-03-17T18:12:32.743Z,100426.94
2023-03-17T18:14:59.347Z,100436.53
2023-03-17T18:17:26.370Z,100432.59
2023-03-17T18:19:53.368Z,100433.66
2023-03-17T18:22:21.446Z,100436.53
2023-03-17T18:24:48.558Z,100430.00
2023-03-17T18:27:15.822Z,100439.91
2023-03-17T18:29:43.356Z,100435.91
2023-03-17T18:32:11.638Z,100450.00
2023-03-17T18:34:43.441Z,100453.13
2023-03-17T18:37:13.147Z,100445.81
2023-03-17T18:39:40.936Z,100437.78
2023-03-17T18:42:08.705Z,100445.78
2023-03-17T18:44:35.618Z,100455.94
2023-03-17T18:47:03.004Z,100450.22
2023-03-17T18:49:30.651Z,100442.91
2023-03-17T18:51:59.055Z,100436.63
2023-03-17T18:54:27.585Z,100438.97
2023-03-17T18:56:54.699Z,100419.91
2023-03-17T18:59:21.526Z,100432.19
2023-03-17T19:01:48.047Z,100435.06
2023-03-17T19:04:14.604Z,100427.41
2023-03-17T19:06:42.567Z,100443.88
2023-03-17T19:09:10.877Z,100444.38
2023-03-17T19:11:39.236Z,100447.50
2023-03-17T19:14:06.890Z,100444.81
2023-03-17T19:16:34.541Z,100444.88
2023-03-17T19:19:02.009Z,100429.00
2023-03-17T19:21:28.585Z,100428.22
2023-03-17T19:23:59.240Z,100429.22
2023-03-17T19:26:25.935Z,100413.50
2023-03-17T19:28:52.790Z,100417.69
2023-03-17T19:31:19.312Z,100416.41
2023-03-17T19:33:45.841Z,100407.34
2023-03-17T19:36:12.942Z,100413.06
2023-03-17T19:38:40.038Z,100399.75
2023-03-17T19:41:06.790Z,100393.47
2023-03-17T19:43:40.764Z,100398.47
2023-03-17T19:46:09.414Z,100402.63
2023-03-17T19:48:37.276Z,100392.97
2023-03-17T19:51:04.382Z,100383.03
2023-03-17T19:53:31.212Z,100387.25
2023-03-17T19:55:57.693Z,100395.03
2023-03-17T19:58:24.220Z,100381.75
2023-03-17T20:00:51.462Z,100379.16
2023-03-17T20:03:18.835Z,100373.91
2023-03-17T20:05:46.300Z,100384.34
2023-03-17T20:08:12.947Z,100379.38
2023-03-17T20:10:39.431Z,100381.75
2023-03-17T20:13:06.334Z,100380.16
2023-03-17T20:15:32.817Z,100361.09
2023-03-17T20:17:59.298Z,100362.19
2023-03-17T20:20:25.751Z,100372.31
2023-03-17T20:22:52.271Z,100374.41
2023-03-17T20:25:18.808Z,100369.19
2023-03-17T20:27:45.256Z,100376.75
2023-03-17T20:30:12.360Z,100376.47
2023-03-17T20:32:39.627Z,100388.69
2023-03-17T20:35:08.180Z,100394.66
2023-03-17T20:37:35.716Z,100388.84
2023-03-17T20:40:05.455Z,100394.34
2023-03-17T20:42:32.017Z,100384.75
2023-03-17T20:44:59.010Z,100387.28
2023-03-17T20:47:26.597Z,100385.25
2023-03-17T20:49:57.739Z,100387.34
2023-03-17T20:52:26.487Z,100390.97
2023-03-17T20:54:54.703Z,100383.63
2023-03-17T20:57:21.184Z,100377.91
2023-03-17T20:59:47.743Z,100383.41
2023-03-17T21:02:17.386Z,100389.94
2023-03-17T21:04:48.055Z,100380.28
2023-03-17T21:07:19.609Z,100375.34
2023-03-17T21:09:46.722Z,100363.56
2023-03-17T21:12:16.517Z,100363.63
2023-03-17T21:14:42.998Z,100371.63
2023-03-17T21:17:10.886Z,100377.13
2023-03-17T21:19:37.813Z,100386.22
2023-03-17T21:22:05.250Z,100382.06
2023-03-17T21:24:34.457Z,100381.28
2023-03-17T21:27:03.303Z,100377.63
2023-03-17T21:29:32.658Z,100383.34
2023-03-17T21:32:00.955Z,100379.88
2023-03-17T21:34:29.966Z,100383.84
2023-03-17T21:36:57.238Z,100387.22
2023-03-17T21:39:26.553Z,100384.34
2023-03-17T21:41:55.085Z,100379.59
2023-03-17T21:44:22.163Z,100373.88
2023-03-17T21:46:49.473Z,100377.03
2023-03-17T21:49:16.991Z,100371.03
2023-03-17T21:51:45.251Z,100368.16
2023-03-17T21:54:12.424Z,100366.09
2023-03-17T21:56:40.677Z,100356.69
2023-03-17T21:59:10.851Z,100348.59
2023-03-17T22:01:41.690Z,100365.31
2023-03-17T22:04:08.664Z,100358.81
2023-03-17T22:06:35.236Z,100369.16
2023-03-17T22:09:02.783Z,100369.44
2023-03-17T22:11:29.231Z,100387.41
2023-03-17T22:13:57.170Z,100391.53
2023-03-17T22:16:24.362Z,100393.34
2023-03-17T22:18:51.627Z,100394.91
2023-03-17T22:21:18.147Z,100374.25
2023-03-17T22:23:44.713Z,100381.84
2023-03-17T22:26:13.304Z,100382.41
2023-03-17T22:28:40.645Z,100381.09
2023-03-17T22:31:14.667Z,100385.28
2023-03-17T22:33:41.630Z,100402.44
2023-03-17T22:36:09.049Z,100395.91
2023-03-17T22:38:35.787Z,100390.19
2023-03-17T22:41:05.443Z,100389.41
2023-03-17T22:43:32.667Z,100369.75
2023-03-17T22:45:59.219Z,100379.75
2023-03-17T22:48:26.251Z,100377.63
2023-03-17T22:50:52.658Z,100394.03
2023-03-17T22:53:19.157Z,100394.53
2023-03-17T22:55:45.780Z,100388.03
2023-03-17T22:58:12.379Z,100369.84
2023-03-17T23:00:40.015Z,100373.97
2023-03-17T23:03:06.699Z,100369.03
2023-03-17T23:05:33.215Z,100364.03
2023-03-17T23:07:59.789Z,100369.53
2023-03-17T23:10:26.741Z,100372.34
2023-03-17T23:12:53.298Z,100401.47
2023-03-17T23:15:21.000Z,100412.91
2023-03-17T23:17:47.678Z,100417.06
2023-03-17T23:20:15.252Z,100403.28
2023-03-17T23:22:41.997Z,100399.34
2023-03-17T23:25:09.200Z,100398.78
2023-03-17T23:27:35.974Z,100405.34
2023-03-17T23:30:03.647Z,100398.47
2023-03-17T23:32:30.259Z,100397.19
2023-03-17T23:34:56.806Z,100401.91
2023-03-17T23:37:23.636Z,100399.78
2023-03-17T23:39:50.113Z,100388.75
2023-03-17T23:42:17.544Z,100395.63
2023-03-17T23:44:45.156Z,100396.13
2023-03-17T23:47:11.912Z,100396.63
2023-03-17T23:49:38.920Z,100399.97
2023-03-17T23:52:05.553Z,100396.34
2023-03-17T23:54:32.165Z,100403.63
2023-03-17T23:56:58.610Z,100399.19
2023-03-17T23:59:25.433Z,100395.56
